createdAt,value
2022-07-29T00:01:44.717Z,100.00
2022-07-29T00:04:11.797Z,100.00
2022-07-29T00:06:38.627Z,100.00
2022-07-29T00:09:05.393Z,100.00
2022-07-29T00:11:31.819Z,100.00
2022-07-29T00:13:58.225Z,100.00
2022-07-29T00:16:24.695Z,100.00
2022-07-29T00:18:51.146Z,100.00
2022-07-29T00:21:17.560Z,100.00
2022-07-29T00:23:44.011Z,100.00
2022-07-29T00:26:10.481Z,100.00
2022-07-29T00:28:37.315Z,100.00
2022-07-29T00:31:03.765Z,100.00
2022-07-29T00:33:30.376Z,100.00
2022-07-29T00:35:57.067Z,100.00
2022-07-29T00:38:23.824Z,100.00
2022-07-29T00:40:50.383Z,100.00
2022-07-29T00:43:18.227Z,100.00
2022-07-29T00:45:45.072Z,100.00
2022-07-29T00:48:11.539Z,100.00
2022-07-29T00:50:38.626Z,100.00
2022-07-29T00:53:07.364Z,100.00
2022-07-29T00:55:34.044Z,100.00
2022-07-29T00:58:01.362Z,100.00
2022-07-29T01:00:29.577Z,100.00
2022-07-29T01:02:57.369Z,100.00
2022-07-29T01:05:48.554Z,100.00
2022-07-29T01:08:16.284Z,100.00
2022-07-29T01:10:44.742Z,100.00
2022-07-29T01:13:11.841Z,100.00
2022-07-29T01:15:49.269Z,100.00
2022-07-29T01:18:18.196Z,100.00
2022-07-29T01:21:19.422Z,100.00
2022-07-29T01:24:00.568Z,100.00
2022-07-29T01:26:35.757Z,100.00
2022-07-29T01:29:08.206Z,100.00
2022-07-29T01:32:02.435Z,100.00
2022-07-29T01:34:40.447Z,100.00
2022-07-29T01:37:19.419Z,100.00
2022-07-29T01:39:48.848Z,100.00
2022-07-29T01:42:28.772Z,100.00
2022-07-29T01:45:00.231Z,100.00
2022-07-29T01:47:39.900Z,100.00
2022-07-29T01:50:09.469Z,100.00
2022-07-29T01:52:43.370Z,100.00
2022-07-29T01:55:15.980Z,100.00
2022-07-29T01:57:47.613Z,100.00
2022-07-29T02:00:14.907Z,100.00
2022-07-29T02:02:44.629Z,100.00
2022-07-29T02:05:21.364Z,100.00
2022-07-29T02:07:50.158Z,100.00
2022-07-29T02:10:20.483Z,100.00
2022-07-29T02:12:55.242Z,100.00
2022-07-29T02:15:25.165Z,100.00
2022-07-29T02:17:59.322Z,100.00
2022-07-29T02:20:27.767Z,100.00
2022-07-29T02:22:55.661Z,100.00
2022-07-29T02:25:24.446Z,100.00
2022-07-29T02:27:52.327Z,100.00
2022-07-29T02:30:22.059Z,100.00
2022-07-29T02:32:50.159Z,100.00
2022-07-29T02:35:17.595Z,100.00
2022-07-29T02:37:46.094Z,100.00
2022-07-29T02:40:15.379Z,100.00
2022-07-29T02:42:44.795Z,100.00
2022-07-29T02:45:11.864Z,100.00
2022-07-29T02:47:43.701Z,100.00
2022-07-29T02:50:34.746Z,100.00
2022-07-29T02:53:10.047Z,100.00
2022-07-29T02:56:00.351Z,100.00
2022-07-29T02:58:30.488Z,100.00
2022-07-29T03:01:00.623Z,100.00
2022-07-29T03:03:32.330Z,100.00
2022-07-29T03:06:02.055Z,100.00
2022-07-29T03:08:29.002Z,100.00
2022-07-29T03:10:56.378Z,100.00
2022-07-29T03:13:23.694Z,100.00
2022-07-29T03:15:51.208Z,100.00
2022-07-29T03:18:18.610Z,100.00
2022-07-29T03:20:45.112Z,100.00
2022-07-29T03:23:11.581Z,100.00
2022-07-29T03:25:38.159Z,100.00
2022-07-29T03:28:04.778Z,100.00
2022-07-29T03:30:31.694Z,100.00
2022-07-29T03:32:58.819Z,100.00
2022-07-29T03:35:25.659Z,100.00
2022-07-29T03:37:52.061Z,100.00
2022-07-29T03:40:26.824Z,100.00
2022-07-29T03:42:56.171Z,100.00
2022-07-29T03:45:23.653Z,100.00
2022-07-29T03:47:59.902Z,100.00
2022-07-29T03:50:28.290Z,100.00
2022-07-29T03:52:54.722Z,100.00
2022-07-29T03:55:21.372Z,100.00
2022-07-29T03:57:49.095Z,100.00
2022-07-29T04:00:16.936Z,100.00
2022-07-29T04:02:49.081Z,100.00
2022-07-29T04:05:16.225Z,100.00
2022-07-29T04:07:46.391Z,100.00
2022-07-29T04:10:13.114Z,100.00
2022-07-29T04:12:39.559Z,100.00
2022-07-29T04:15:06.647Z,100.00
2022-07-29T04:17:33.066Z,100.00
2022-07-29T04:19:59.641Z,100.00
2022-07-29T04:22:26.147Z,100.00
2022-07-29T04:24:53.880Z,100.00
2022-07-29T04:27:20.288Z,100.00
2022-07-29T04:29:57.015Z,100.00
2022-07-29T04:32:25.062Z,100.00
2022-07-29T04:34:51.505Z,100.00
2022-07-29T04:37:17.894Z,100.00
2022-07-29T04:39:44.305Z,100.00
2022-07-29T04:42:11.372Z,100.00
2022-07-29T04:44:39.640Z,100.00
2022-07-29T04:47:09.619Z,100.00
2022-07-29T04:49:38.945Z,100.00
2022-07-29T04:52:06.093Z,100.00
2022-07-29T04:54:32.462Z,100.00
2022-07-29T04:56:58.893Z,100.00
2022-07-29T04:59:26.148Z,100.00
2022-07-29T05:01:52.639Z,100.00
2022-07-29T05:04:19.770Z,100.00
2022-07-29T05:06:46.718Z,100.00
2022-07-29T05:09:13.138Z,100.00
2022-07-29T05:11:39.541Z,100.00
2022-07-29T05:14:05.973Z,100.00
2022-07-29T05:16:32.511Z,100.00
2022-07-29T05:18:58.930Z,100.00
2022-07-29T05:21:25.357Z,100.00
2022-07-29T05:23:51.832Z,100.00
2022-07-29T05:26:18.298Z,100.00
2022-07-29T05:28:44.733Z,100.00
2022-07-29T05:31:11.163Z,100.00
2022-07-29T05:33:37.681Z,100.00
2022-07-29T05:36:08.371Z,100.00
2022-07-29T05:38:36.553Z,100.00
2022-07-29T05:41:03.692Z,100.00
2022-07-29T05:43:30.358Z,100.00
2022-07-29T05:45:57.452Z,100.00
2022-07-29T05:48:23.958Z,100.00
2022-07-29T05:50:50.395Z,100.00
2022-07-29T05:53:19.670Z,100.00
2022-07-29T05:55:47.654Z,100.00
2022-07-29T05:58:14.061Z,100.00
2022-07-29T06:00:41.041Z,100.00
2022-07-29T06:03:07.615Z,100.00
2022-07-29T06:05:34.098Z,100.00
2022-07-29T06:08:00.656Z,100.00
2022-07-29T06:10:27.830Z,100.00
2022-07-29T06:12:54.413Z,100.00
2022-07-29T06:15:20.911Z,100.00
2022-07-29T06:18:00.640Z,100.00
2022-07-29T06:20:32.721Z,100.00
2022-07-29T06:23:00.423Z,100.00
2022-07-29T06:25:30.135Z,100.00
2022-07-29T06:27:56.975Z,100.00
2022-07-29T06:30:24.585Z,100.00
2022-07-29T06:32:51.246Z,100.00
2022-07-29T06:35:41.018Z,100.00
2022-07-29T06:38:09.560Z,100.00
2022-07-29T06:41:00.965Z,100.00
2022-07-29T06:43:32.394Z,100.00
2022-07-29T06:46:03.890Z,100.00
2022-07-29T06:48:30.548Z,100.00
2022-07-29T06:50:57.210Z,100.00
2022-07-29T06:53:23.917Z,100.00
2022-07-29T06:55:50.341Z,100.00
2022-07-29T06:58:18.881Z,100.00
2022-07-29T07:00:46.054Z,100.00
2022-07-29T07:03:12.562Z,100.00
2022-07-29T07:05:39.083Z,100.00
2022-07-29T07:08:05.668Z,100.00
2022-07-29T07:10:32.175Z,100.00
2022-07-29T07:12:58.606Z,100.00
2022-07-29T07:15:39.680Z,100.00
2022-07-29T07:18:07.593Z,100.00
2022-07-29T07:20:34.771Z,100.00
2022-07-29T07:23:01.549Z,100.00
2022-07-29T07:25:28.095Z,100.00
2022-07-29T07:27:54.596Z,100.00
2022-07-29T07:30:21.295Z,100.00
2022-07-29T07:32:47.788Z,100.00
2022-07-29T07:35:14.206Z,100.00
2022-07-29T07:37:41.554Z,100.00
2022-07-29T07:40:10.810Z,100.00
2022-07-29T07:42:37.596Z,100.00
2022-07-29T07:45:16.277Z,99.51
2022-07-29T07:47:43.621Z,100.00
2022-07-29T07:50:18.033Z,100.00
2022-07-29T07:52:52.954Z,100.00
2022-07-29T07:55:20.058Z,100.00
2022-07-29T07:57:46.606Z,99.35
2022-07-29T08:00:15.061Z,100.00
2022-07-29T08:02:43.838Z,100.00
2022-07-29T08:05:12.828Z,99.61
2022-07-29T08:07:39.885Z,93.71
2022-07-29T08:10:06.638Z,91.17
2022-07-29T08:12:33.101Z,93.92
2022-07-29T08:14:59.843Z,93.65
2022-07-29T08:17:27.527Z,90.94
2022-07-29T08:19:53.963Z,92.40
2022-07-29T08:22:20.499Z,91.08
2022-07-29T08:24:57.029Z,92.15
2022-07-29T08:27:42.997Z,91.59
2022-07-29T08:30:11.123Z,87.21
2022-07-29T08:32:53.313Z,85.97
2022-07-29T08:35:21.733Z,88.51
2022-07-29T08:37:48.879Z,88.19
2022-07-29T08:40:15.663Z,87.42
2022-07-29T08:42:42.242Z,87.52
2022-07-29T08:45:09.168Z,88.95
2022-07-29T08:47:40.478Z,88.52
2022-07-29T08:50:09.201Z,86.14
2022-07-29T08:52:38.839Z,84.96
2022-07-29T08:55:07.590Z,85.71
2022-07-29T08:57:34.967Z,87.42
2022-07-29T09:00:11.871Z,83.62
2022-07-29T09:02:48.637Z,83.13
2022-07-29T09:05:15.679Z,82.57
2022-07-29T09:07:44.262Z,81.25
2022-07-29T09:10:11.416Z,77.30
2022-07-29T09:12:39.382Z,77.31
2022-07-29T09:15:06.540Z,78.24
2022-07-29T09:17:43.996Z,77.03
2022-07-29T09:20:15.148Z,74.80
2022-07-29T09:22:42.318Z,73.63
2022-07-29T09:25:09.848Z,73.99
2022-07-29T09:27:36.963Z,72.63
2022-07-29T09:30:11.682Z,74.24
2022-07-29T09:33:01.778Z,73.07
2022-07-29T09:35:29.335Z,71.53
2022-07-29T09:37:55.864Z,75.15
2022-07-29T09:40:25.047Z,73.69
2022-07-29T09:42:53.840Z,73.94
2022-07-29T09:45:35.138Z,75.81
2022-07-29T09:48:23.551Z,75.28
2022-07-29T09:50:50.995Z,75.61
2022-07-29T09:53:39.169Z,73.88
2022-07-29T09:56:06.015Z,68.35
2022-07-29T09:58:34.674Z,72.78
2022-07-29T10:01:01.411Z,70.14
2022-07-29T10:03:28.030Z,72.23
2022-07-29T10:06:14.478Z,73.32
2022-07-29T10:08:42.452Z,71.06
2022-07-29T10:11:19.070Z,69.27
2022-07-29T10:13:47.781Z,67.23
2022-07-29T10:16:16.226Z,64.74
2022-07-29T10:18:44.616Z,63.56
2022-07-29T10:21:11.434Z,65.87
2022-07-29T10:23:50.244Z,65.83
2022-07-29T10:26:16.774Z,67.36
2022-07-29T10:28:43.242Z,65.93
2022-07-29T10:31:18.025Z,65.01
2022-07-29T10:34:22.986Z,63.66
2022-07-29T10:37:04.736Z,62.58
2022-07-29T10:40:30.812Z,62.56
2022-07-29T10:43:03.819Z,60.16
2022-07-29T10:45:30.583Z,60.83
2022-07-29T10:48:08.028Z,60.85
2022-07-29T10:50:56.219Z,61.56
2022-07-29T10:53:24.510Z,60.49
2022-07-29T10:55:53.690Z,60.16
2022-07-29T10:58:27.084Z,60.58
2022-07-29T11:00:56.267Z,58.87
2022-07-29T11:03:50.329Z,56.27
2022-07-29T11:06:26.748Z,58.89
2022-07-29T11:09:16.989Z,55.85
2022-07-29T11:11:43.937Z,58.31
2022-07-29T11:14:14.791Z,57.51
2022-07-29T11:17:06.885Z,59.14
2022-07-29T11:19:34.084Z,60.17
2022-07-29T11:22:02.475Z,59.07
2022-07-29T11:24:33.010Z,59.99
2022-07-29T11:27:23.433Z,60.72
2022-07-29T11:29:58.772Z,60.42
2022-07-29T11:32:37.802Z,59.67
2022-07-29T11:35:37.653Z,59.42
2022-07-29T11:38:31.953Z,58.76
2022-07-29T11:41:27.381Z,53.89
2022-07-29T11:43:55.991Z,55.91
2022-07-29T11:46:47.994Z,56.37
2022-07-29T11:49:20.360Z,56.82
2022-07-29T11:51:57.163Z,57.67
2022-07-29T11:54:27.884Z,60.35
2022-07-29T11:56:58.388Z,59.68
2022-07-29T11:59:33.121Z,60.53
2022-07-29T12:02:36.644Z,61.71
2022-07-29T12:04:52.514Z,62.35
2022-07-29T12:07:34.847Z,59.79
2022-07-29T12:10:03.215Z,59.61
2022-07-29T12:12:29.903Z,61.19
2022-07-29T12:14:56.413Z,61.74
2022-07-29T12:17:30.889Z,63.30
2022-07-29T12:20:00.761Z,63.83
2022-07-29T12:22:32.427Z,64.51
2022-07-29T12:25:32.332Z,64.53
2022-07-29T12:28:03.982Z,64.87
2022-07-29T12:30:49.548Z,63.84
2022-07-29T12:33:24.094Z,61.22
2022-07-29T12:36:05.922Z,61.35
2022-07-29T12:38:35.632Z,64.03
2022-07-29T12:41:04.446Z,62.38
2022-07-29T12:43:31.574Z,63.72
2022-07-29T12:45:58.702Z,63.07
2022-07-29T12:48:39.154Z,64.05
2022-07-29T12:51:07.714Z,63.14
2022-07-29T12:53:34.364Z,65.55
2022-07-29T12:56:15.543Z,65.75
2022-07-29T12:58:51.462Z,66.34
2022-07-29T13:01:20.422Z,65.49
2022-07-29T13:04:01.474Z,65.65
2022-07-29T13:06:41.281Z,66.12
2022-07-29T13:09:12.122Z,65.50
2022-07-29T13:11:47.881Z,65.46
2022-07-29T13:14:32.596Z,64.26
2022-07-29T13:17:08.831Z,65.14
2022-07-29T13:19:43.624Z,63.53
2022-07-29T13:22:15.005Z,63.67
2022-07-29T13:24:52.359Z,62.18
2022-07-29T13:27:22.357Z,62.17
2022-07-29T13:29:52.140Z,61.08
2022-07-29T13:32:19.588Z,61.80
2022-07-29T13:34:56.010Z,63.36
2022-07-29T13:37:22.482Z,63.92
2022-07-29T13:39:52.998Z,63.71
2022-07-29T13:42:20.019Z,65.86
2022-07-29T13:44:46.529Z,64.01
2022-07-29T13:47:13.709Z,62.82
2022-07-29T13:49:40.205Z,63.96
2022-07-29T13:52:08.404Z,62.97
2022-07-29T13:54:41.991Z,64.81
2022-07-29T13:57:09.939Z,64.76
2022-07-29T13:59:36.382Z,62.06
2022-07-29T14:02:03.978Z,64.95
2022-07-29T14:04:30.506Z,62.98
2022-07-29T14:06:57.131Z,65.34
2022-07-29T14:09:23.658Z,62.95
2022-07-29T14:11:51.859Z,65.52
2022-07-29T14:14:18.428Z,65.79
2022-07-29T14:16:47.788Z,64.30
2022-07-29T14:19:16.919Z,61.82
2022-07-29T14:21:43.439Z,62.97
2022-07-29T14:24:21.758Z,63.26
2022-07-29T14:26:49.678Z,61.37
2022-07-29T14:29:16.190Z,61.53
2022-07-29T14:31:44.097Z,63.36
2022-07-29T14:34:10.689Z,67.06
2022-07-29T14:36:37.271Z,66.81
2022-07-29T14:39:03.857Z,67.48
2022-07-29T14:41:30.571Z,65.24
2022-07-29T14:43:57.053Z,62.23
2022-07-29T14:46:23.750Z,65.88
2022-07-29T14:48:50.245Z,67.65
2022-07-29T14:51:16.768Z,66.68
2022-07-29T14:53:43.190Z,69.34
2022-07-29T14:56:34.180Z,61.63
2022-07-29T14:58:59.539Z,66.80
2022-07-29T15:01:26.045Z,65.72
2022-07-29T15:03:54.791Z,60.35
2022-07-29T15:06:24.540Z,65.08
2022-07-29T15:08:50.932Z,63.65
2022-07-29T15:11:17.516Z,58.49
2022-07-29T15:13:44.047Z,61.84
2022-07-29T15:16:11.231Z,65.88
2022-07-29T15:18:41.281Z,64.77
2022-07-29T15:21:08.491Z,65.56
2022-07-29T15:23:37.458Z,66.06
2022-07-29T15:26:05.126Z,65.70
2022-07-29T15:28:31.683Z,65.47
2022-07-29T15:30:58.159Z,64.80
2022-07-29T15:33:24.871Z,62.26
2022-07-29T15:35:51.384Z,60.48
2022-07-29T15:38:18.537Z,61.64
2022-07-29T15:40:46.545Z,62.53
2022-07-29T15:43:13.173Z,65.39
2022-07-29T15:45:41.410Z,64.74
2022-07-29T15:48:09.887Z,66.81
2022-07-29T15:50:41.297Z,70.28
2022-07-29T15:53:07.741Z,75.77
2022-07-29T15:55:34.185Z,73.69
2022-07-29T15:58:00.912Z,75.43
2022-07-29T16:00:27.905Z,76.99
2022-07-29T16:02:54.392Z,78.88
2022-07-29T16:05:21.013Z,78.60
2022-07-29T16:07:47.465Z,81.41
2022-07-29T16:10:13.971Z,81.26
2022-07-29T16:12:40.646Z,84.68
2022-07-29T16:15:10.413Z,83.89
2022-07-29T16:17:37.972Z,83.71
2022-07-29T16:20:06.079Z,85.62
2022-07-29T16:22:32.538Z,85.58
2022-07-29T16:24:59.033Z,83.23
2022-07-29T16:27:31.392Z,88.55
2022-07-29T16:30:06.398Z,89.29
2022-07-29T16:32:32.814Z,91.85
2022-07-29T16:35:02.040Z,94.13
2022-07-29T16:37:33.446Z,95.67
2022-07-29T16:39:59.953Z,94.60
2022-07-29T16:42:45.590Z,96.59
2022-07-29T16:45:13.618Z,95.82
2022-07-29T16:47:40.329Z,100.00
2022-07-29T16:50:07.543Z,100.00
2022-07-29T16:52:34.189Z,100.00
2022-07-29T16:55:00.767Z,100.00
2022-07-29T16:57:27.271Z,100.00
2022-07-29T16:59:54.934Z,100.00
2022-07-29T17:02:21.477Z,100.00
2022-07-29T17:04:48.340Z,100.00
2022-07-29T17:07:15.999Z,100.00
2022-07-29T17:09:42.442Z,100.00
2022-07-29T17:12:09.380Z,100.00
2022-07-29T17:14:35.821Z,100.00
2022-07-29T17:17:03.141Z,100.00
2022-07-29T17:19:32.804Z,100.00
2022-07-29T17:22:07.060Z,100.00
2022-07-29T17:24:36.907Z,100.00
2022-07-29T17:27:04.841Z,100.00
2022-07-29T17:29:31.366Z,100.00
2022-07-29T17:31:59.534Z,100.00
2022-07-29T17:34:26.740Z,100.00
2022-07-29T17:36:53.285Z,100.00
2022-07-29T17:39:19.671Z,100.00
2022-07-29T17:41:46.848Z,100.00
2022-07-29T17:44:13.611Z,100.00
2022-07-29T17:46:40.466Z,100.00
2022-07-29T17:49:07.615Z,100.00
2022-07-29T17:51:34.221Z,100.00
2022-07-29T17:54:00.698Z,100.00
2022-07-29T17:56:27.171Z,100.00
2022-07-29T17:58:54.149Z,100.00
2022-07-29T18:01:20.926Z,100.00
2022-07-29T18:03:47.515Z,100.00
2022-07-29T18:06:13.993Z,100.00
2022-07-29T18:08:40.706Z,100.00
2022-07-29T18:11:07.259Z,100.00
2022-07-29T18:13:33.742Z,100.00
2022-07-29T18:16:00.806Z,100.00
2022-07-29T18:18:27.873Z,100.00
2022-07-29T18:20:54.345Z,100.00
2022-07-29T18:23:21.233Z,100.00
2022-07-29T18:25:47.771Z,100.00
2022-07-29T18:28:14.318Z,100.00
2022-07-29T18:30:41.463Z,100.00
2022-07-29T18:33:21.604Z,100.00
2022-07-29T18:35:50.116Z,100.00
2022-07-29T18:38:17.345Z,100.00
2022-07-29T18:40:45.783Z,100.00
2022-07-29T18:43:13.631Z,100.00
2022-07-29T18:45:40.622Z,100.00
2022-07-29T18:48:12.815Z,100.00
2022-07-29T18:50:39.886Z,100.00
2022-07-29T18:53:06.341Z,100.00
2022-07-29T18:55:32.845Z,100.00
2022-07-29T18:57:59.506Z,100.00
2022-07-29T19:00:26.535Z,100.00
2022-07-29T19:02:53.686Z,100.00
2022-07-29T19:05:21.064Z,100.00
2022-07-29T19:07:47.555Z,100.00
2022-07-29T19:10:14.266Z,100.00
2022-07-29T19:12:40.895Z,100.00
2022-07-29T19:15:10.313Z,100.00
2022-07-29T19:17:36.747Z,100.00
2022-07-29T19:20:03.574Z,100.00
2022-07-29T19:22:30.823Z,100.00
2022-07-29T19:24:57.309Z,100.00
2022-07-29T19:27:24.045Z,100.00
2022-07-29T19:29:50.601Z,100.00
2022-07-29T19:32:25.042Z,100.00
2022-07-29T19:35:10.671Z,100.00
2022-07-29T19:37:37.537Z,100.00
2022-07-29T19:40:05.197Z,100.00
2022-07-29T19:42:31.598Z,100.00
2022-07-29T19:44:58.045Z,100.00
2022-07-29T19:47:24.544Z,100.00
2022-07-29T19:49:51.508Z,100.00
2022-07-29T19:52:17.969Z,100.00
2022-07-29T19:54:44.431Z,100.00
2022-07-29T19:57:11.867Z,100.00
2022-07-29T19:59:39.013Z,100.00
2022-07-29T20:02:05.819Z,100.00
2022-07-29T20:04:32.314Z,100.00
2022-07-29T20:07:01.709Z,100.00
2022-07-29T20:09:28.663Z,100.00
2022-07-29T20:11:55.330Z,100.00
2022-07-29T20:14:21.989Z,100.00
2022-07-29T20:16:48.855Z,100.00
2022-07-29T20:19:15.618Z,100.00
2022-07-29T20:21:42.123Z,100.00
2022-07-29T20:24:10.309Z,100.00
2022-07-29T20:26:36.889Z,100.00
2022-07-29T20:29:05.180Z,100.00
2022-07-29T20:31:32.512Z,100.00
2022-07-29T20:34:00.149Z,100.00
2022-07-29T20:36:27.425Z,100.00
2022-07-29T20:38:55.002Z,100.00
2022-07-29T20:41:21.573Z,100.00
2022-07-29T20:43:49.815Z,100.00
2022-07-29T20:46:16.758Z,100.00
2022-07-29T20:48:43.706Z,100.00
2022-07-29T20:51:10.264Z,100.00
2022-07-29T20:53:40.423Z,100.00
2022-07-29T20:56:07.626Z,100.00
2022-07-29T20:58:36.138Z,100.00
2022-07-29T21:01:03.666Z,100.00
2022-07-29T21:03:30.272Z,100.00
2022-07-29T21:05:57.044Z,100.00
2022-07-29T21:08:23.498Z,100.00
2022-07-29T21:10:50.033Z,100.00
2022-07-29T21:13:17.033Z,100.00
2022-07-29T21:15:46.241Z,100.00
2022-07-29T21:18:30.148Z,100.00
2022-07-29T21:20:58.447Z,100.00
2022-07-29T21:23:25.749Z,100.00
2022-07-29T21:25:53.326Z,100.00
2022-07-29T21:28:50.585Z,100.00
2022-07-29T21:31:17.237Z,100.00
2022-07-29T21:33:46.212Z,100.00
2022-07-29T21:36:46.564Z,100.00
2022-07-29T21:39:06.952Z,100.00
2022-07-29T21:41:34.420Z,100.00
2022-07-29T21:44:01.325Z,100.00
2022-07-29T21:46:28.007Z,100.00
2022-07-29T21:48:54.582Z,100.00
2022-07-29T21:51:21.151Z,100.00
2022-07-29T21:53:47.586Z,100.00
2022-07-29T21:56:14.732Z,100.00
2022-07-29T21:58:41.712Z,100.00
2022-07-29T22:01:08.463Z,100.00
2022-07-29T22:03:34.913Z,100.00
2022-07-29T22:06:01.386Z,100.00
2022-07-29T22:08:27.865Z,100.00
2022-07-29T22:10:54.340Z,100.00
2022-07-29T22:13:20.772Z,100.00
2022-07-29T22:15:47.384Z,100.00
2022-07-29T22:18:20.553Z,100.00
2022-07-29T22:20:48.579Z,100.00
2022-07-29T22:23:15.122Z,100.00
2022-07-29T22:25:41.596Z,100.00
2022-07-29T22:28:08.014Z,100.00
2022-07-29T22:30:34.573Z,100.00
2022-07-29T22:33:01.027Z,100.00
2022-07-29T22:35:27.458Z,100.00
2022-07-29T22:37:54.204Z,100.00
2022-07-29T22:40:20.866Z,100.00
2022-07-29T22:42:47.317Z,100.00
2022-07-29T22:45:13.778Z,100.00
2022-07-29T22:47:48.248Z,100.00
2022-07-29T22:50:15.676Z,100.00
2022-07-29T22:52:42.205Z,100.00
2022-07-29T22:55:09.224Z,100.00
2022-07-29T22:57:35.886Z,100.00
2022-07-29T23:00:02.452Z,100.00
2022-07-29T23:02:29.349Z,100.00
2022-07-29T23:04:56.289Z,100.00
2022-07-29T23:07:22.915Z,100.00
2022-07-29T23:09:49.423Z,100.00
2022-07-29T23:12:15.817Z,100.00
2022-07-29T23:14:42.242Z,100.00
2022-07-29T23:17:08.768Z,100.00
2022-07-29T23:19:35.207Z,100.00
2022-07-29T23:22:01.594Z,100.00
2022-07-29T23:24:28.046Z,100.00
2022-07-29T23:26:54.457Z,100.00
2022-07-29T23:29:21.105Z,100.00
2022-07-29T23:31:48.034Z,100.00
2022-07-29T23:34:14.970Z,100.00
2022-07-29T23:36:42.280Z,100.00
2022-07-29T23:39:13.109Z,100.00
2022-07-29T23:41:39.685Z,100.00
2022-07-29T23:44:06.147Z,100.00
2022-07-29T23:46:32.601Z,100.00
2022-07-29T23:48:59.101Z,100.00
2022-07-29T23:51:25.711Z,100.00
2022-07-29T23:53:53.049Z,100.00
2022-07-29T23:56:21.002Z,100.00
2022-07-29T23:58:47.463Z,100.00
